Caledon East, Canada
Current Conditions -  °F | °C
As of 5:00 AM on Saturday 20 Dec 2014 (Local Time) from CYYZ Reporting Station
Few Clouds Few Clouds  
Wind Chill: 14°   Ceiling: Unl
Heat Index: 21°   Visibility: 15mi
Dew Point: 18°   Wind: 6mph
Humidity: 86%   Direction: 310°NW
Pressure: 30.28"   Gusts: NA
Location:  43.87°N, 79.87°W
Report Text: CYYZ 201000Z 31005KT 15SM FEW025 FEW210 M06/M08 A3028 RMK SC1CI1 SLP262
Loading
Personal Weather Stations






























Interactive Weather Map New forecast layout! Learn more

10-Day Weather Forecast

Advertisements
Track Severe Weather on mobile